Time;durP1;ratioP1;P1;durP2;ratioP2;P2;SDS_P1;SDS_P2;PMS_P1;PMS_P2;Temp;Humidity;BMP_temperature;BMP_pressure;BME280_temperature;BME280_humidity;BME280_pressure;Samples;Min_cycle;Max_cycle;Signal;HPM_P1;HPM_P2
2021/09/20 00:01:33;;;;;;;4.75;2.85;;;12.50;99.90;;;;;;5070912;28;20029;-51
2021/09/20 00:03:58;;;;;;;3.90;2.80;;;12.60;99.90;;;;;;5070828;28;20074;-49
2021/09/20 00:06:24;;;;;;;4.80;3.33;;;12.60;99.90;;;;;;5056962;28;20470;-49
2021/09/20 00:08:50;;;;;;;11.45;3.70;;;12.50;99.90;;;;;;5061050;28;20024;-51
2021/09/20 00:11:15;;;;;;;6.55;3.45;;;12.50;99.90;;;;;;5069361;28;20029;-50
2021/09/20 00:13:41;;;;;;;2.95;2.45;;;12.50;99.90;;;;;;5070864;28;20032;-49
2021/09/20 00:16:06;;;;;;;5.00;3.03;;;12.50;99.90;;;;;;5070394;28;20056;-49
2021/09/20 00:18:32;;;;;;;6.18;2.67;;;12.50;99.90;;;;;;5069770;28;20426;-49
2021/09/20 00:20:58;;;;;;;4.93;2.78;;;12.50;99.90;;;;;;5070662;28;20033;-48
2021/09/20 00:23:23;;;;;;;5.63;2.78;;;12.40;99.90;;;;;;5070360;28;20029;-50
2021/09/20 00:25:49;;;;;;;6.25;2.53;;;12.40;99.90;;;;;;5070590;28;20031;-49
2021/09/20 00:28:14;;;;;;;3.92;2.67;;;12.50;99.90;;;;;;5069878;28;20035;-49
2021/09/20 00:30:40;;;;;;;4.82;2.40;;;12.40;99.90;;;;;;5070387;28;20036;-48
2021/09/20 00:33:07;;;;;;;6.55;2.33;;;12.40;99.90;;;;;;5070685;28;20485;-49
2021/09/20 00:35:33;;;;;;;3.47;2.65;;;12.40;99.90;;;;;;5059339;28;20037;-49
2021/09/20 00:37:58;;;;;;;4.63;2.50;;;12.40;99.90;;;;;;5058508;28;20029;-49
2021/09/20 00:40:24;;;;;;;5.18;2.88;;;12.40;99.90;;;;;;5070141;28;20023;-48
2021/09/20 00:42:50;;;;;;;7.47;2.58;;;12.40;99.90;;;;;;5070376;28;20374;-48
2021/09/20 00:45:15;;;;;;;7.43;2.83;;;12.40;99.90;;;;;;5070040;28;20032;-47
2021/09/20 00:47:41;;;;;;;4.50;2.92;;;12.40;99.90;;;;;;5067988;28;20097;-48
2021/09/20 00:50:08;;;;;;;4.05;2.63;;;12.40;99.90;;;;;;5070122;28;20024;-49
2021/09/20 00:52:33;;;;;;;4.78;3.00;;;12.40;99.90;;;;;;5069676;28;20117;-48
2021/09/20 00:54:59;;;;;;;4.15;2.60;;;12.40;99.90;;;;;;5070270;28;20021;-50
2021/09/20 00:57:25;;;;;;;4.03;2.90;;;12.40;99.90;;;;;;5068066;28;20021;-50
2021/09/20 00:59:51;;;;;;;3.92;2.47;;;12.30;99.90;;;;;;5070100;28;20027;-49
2021/09/20 01:02:16;;;;;;;4.65;2.53;;;12.40;99.90;;;;;;5070309;28;20025;-49
2021/09/20 01:04:42;;;;;;;4.95;2.75;;;12.40;99.90;;;;;;5069924;28;20139;-48
2021/09/20 01:07:07;;;;;;;4.85;2.70;;;12.40;99.90;;;;;;5052219;28;20467;-50
2021/09/20 01:09:38;;;;;;;4.25;2.67;;;12.30;99.90;;;;;;5064864;28;20107;-48
2021/09/20 01:12:03;;;;;;;4.70;2.63;;;12.30;99.90;;;;;;5069939;28;20020;-47
2021/09/20 01:14:29;;;;;;;4.95;2.90;;;12.30;99.90;;;;;;5069413;28;20372;-50
2021/09/20 01:16:54;;;;;;;4.45;2.78;;;12.30;99.90;;;;;;5068897;28;20031;-48
2021/09/20 01:19:20;;;;;;;6.93;2.85;;;12.30;99.90;;;;;;5068516;28;20496;-48
2021/09/20 01:21:45;;;;;;;5.20;2.90;;;12.30;99.90;;;;;;5067608;28;20020;-47
2021/09/20 01:24:11;;;;;;;3.75;2.72;;;12.30;99.90;;;;;;5068060;28;20449;-47
2021/09/20 01:26:36;;;;;;;5.15;2.92;;;12.30;99.90;;;;;;5049145;28;20482;-48
2021/09/20 01:29:06;;;;;;;7.68;3.22;;;12.30;99.90;;;;;;5040035;28;20028;-47
2021/09/20 01:31:31;;;;;;;5.10;2.55;;;12.30;99.90;;;;;;5064166;28;20032;-50
2021/09/20 01:33:57;;;;;;;3.65;2.78;;;12.30;99.90;;;;;;5067671;28;20021;-48
2021/09/20 01:36:22;;;;;;;2.85;2.47;;;12.20;99.90;;;;;;5055446;28;20482;-48
2021/09/20 01:38:47;;;;;;;4.45;2.30;;;12.20;99.90;;;;;;5060373;28;20225;-48
2021/09/20 01:41:13;;;;;;;5.40;2.65;;;12.20;99.90;;;;;;5067603;28;20470;-48
2021/09/20 01:43:39;;;;;;;4.40;3.00;;;12.30;99.90;;;;;;5068770;28;20025;-48
2021/09/20 01:46:04;;;;;;;7.75;3.00;;;12.20;99.90;;;;;;5068797;28;20150;-47
2021/09/20 01:48:29;;;;;;;4.20;2.80;;;12.20;99.90;;;;;;5068350;28;20398;-48
2021/09/20 01:50:55;;;;;;;6.00;2.85;;;12.20;99.90;;;;;;5068631;28;20103;-47
2021/09/20 01:53:20;;;;;;;4.55;2.42;;;12.20;99.90;;;;;;5069077;28;20029;-48
2021/09/20 01:55:46;;;;;;;5.25;2.90;;;12.20;99.90;;;;;;5068972;28;20031;-47
2021/09/20 01:58:11;;;;;;;3.88;2.60;;;12.20;99.90;;;;;;5068190;28;20085;-47
2021/09/20 02:00:43;;;;;;;3.83;2.63;;;12.20;99.90;;;;;;5067353;28;20020;-48
2021/09/20 02:03:09;;;;;;;5.75;2.97;;;12.20;99.90;;;;;;5067592;28;20062;-48
2021/09/20 02:05:34;;;;;;;4.18;2.85;;;12.20;99.90;;;;;;5057344;28;20044;-50
2021/09/20 02:08:00;;;;;;;4.93;2.25;;;12.20;99.90;;;;;;5047067;28;20397;-48
2021/09/20 02:10:25;;;;;;;4.57;2.60;;;12.20;99.90;;;;;;5062604;28;20270;-48
2021/09/20 02:12:51;;;;;;;4.43;2.40;;;12.20;99.90;;;;;;5068498;28;20037;-49
2021/09/20 02:15:16;;;;;;;2.80;2.40;;;12.20;99.90;;;;;;5067237;28;20082;-48
2021/09/20 02:17:42;;;;;;;3.38;2.65;;;12.20;99.90;;;;;;5067824;28;20052;-49
2021/09/20 02:20:08;;;;;;;5.88;2.47;;;12.20;99.90;;;;;;5066998;28;20439;-47
2021/09/20 02:22:34;;;;;;;5.68;2.50;;;12.20;99.90;;;;;;5068260;28;20027;-47
2021/09/20 02:25:02;;;;;;;7.30;3.33;;;12.20;99.90;;;;;;5068444;28;20074;-49
2021/09/20 02:27:27;;;;;;;7.20;2.47;;;12.20;99.90;;;;;;5067746;28;20025;-49
2021/09/20 02:29:53;;;;;;;3.60;2.65;;;12.10;99.90;;;;;;5068730;28;20023;-47
2021/09/20 02:32:18;;;;;;;3.88;2.33;;;12.20;99.90;;;;;;5071646;28;20040;-50
2021/09/20 02:34:44;;;;;;;3.58;2.50;;;12.20;99.90;;;;;;5072382;28;20226;-47
2021/09/20 02:37:09;;;;;;;5.57;2.63;;;12.20;99.90;;;;;;5056919;28;20017;-47
2021/09/20 02:39:35;;;;;;;6.07;2.95;;;12.10;99.90;;;;;;5062493;28;20086;-47
2021/09/20 02:42:00;;;;;;;8.25;2.65;;;12.20;99.90;;;;;;5032396;28;20028;-47
2021/09/20 02:44:26;;;;;;;5.80;2.70;;;12.10;99.90;;;;;;5030828;28;20029;-49
2021/09/20 02:46:51;;;;;;;3.22;2.30;;;12.10;99.90;;;;;;5031670;28;20099;-47
2021/09/20 02:49:17;;;;;;;4.20;2.63;;;12.10;99.90;;;;;;5031040;28;20100;-50
2021/09/20 02:51:42;;;;;;;6.22;2.85;;;12.10;99.90;;;;;;5032002;28;20025;-48
2021/09/20 02:54:08;;;;;;;4.72;2.72;;;12.10;99.90;;;;;;5032403;28;20034;-48
2021/09/20 02:56:33;;;;;;;5.00;2.63;;;12.10;99.90;;;;;;5031368;28;20084;-47
2021/09/20 02:58:59;;;;;;;7.25;2.72;;;12.10;99.90;;;;;;5032215;28;20022;-47
2021/09/20 03:01:25;;;;;;;5.88;2.80;;;12.10;99.90;;;;;;5032202;28;20027;-47
2021/09/20 03:03:50;;;;;;;3.72;2.42;;;12.10;99.90;;;;;;5032084;28;20446;-47
2021/09/20 03:06:16;;;;;;;4.68;2.90;;;12.10;99.90;;;;;;5040497;28;20385;-48
2021/09/20 03:08:41;;;;;;;4.32;2.45;;;12.10;99.90;;;;;;5063060;28;20398;-47
2021/09/20 03:11:07;;;;;;;4.93;2.78;;;12.10;99.90;;;;;;5071959;28;20032;-47
2021/09/20 03:13:32;;;;;;;6.25;2.65;;;12.10;99.90;;;;;;5071689;28;20350;-46
2021/09/20 03:15:58;;;;;;;5.10;2.83;;;12.10;99.90;;;;;;5071881;28;20047;-47
2021/09/20 03:18:23;;;;;;;4.80;2.55;;;12.10;99.90;;;;;;5071085;28;20473;-47
2021/09/20 03:20:49;;;;;;;6.28;2.90;;;12.10;99.90;;;;;;5071293;28;20043;-47
2021/09/20 03:23:14;;;;;;;5.88;3.00;;;12.10;99.90;;;;;;5071581;28;20036;-47
2021/09/20 03:25:40;;;;;;;5.88;3.05;;;12.10;99.90;;;;;;5071395;28;20039;-47
2021/09/20 03:28:05;;;;;;;4.07;2.88;;;12.00;99.90;;;;;;5070812;28;20028;-47
2021/09/20 03:30:31;;;;;;;4.93;2.80;;;12.10;99.90;;;;;;5071317;28;20024;-50
2021/09/20 03:32:56;;;;;;;4.85;2.67;;;12.00;99.90;;;;;;5069904;28;20024;-48
2021/09/20 03:35:22;;;;;;;5.63;3.08;;;12.10;99.90;;;;;;5068899;28;20036;-50
2021/09/20 03:37:48;;;;;;;3.90;3.15;;;12.00;99.90;;;;;;5056396;28;20091;-50
2021/09/20 03:40:16;;;;;;;4.03;2.85;;;12.10;99.90;;;;;;5071418;28;20527;-47
2021/09/20 03:42:42;;;;;;;7.63;2.78;;;12.00;99.90;;;;;;5070166;28;20375;-50
2021/09/20 03:45:09;;;;;;;4.90;2.95;;;12.10;99.90;;;;;;5069792;28;20032;-48
2021/09/20 03:47:35;;;;;;;5.72;2.80;;;12.00;99.90;;;;;;5070246;28;20025;-49
2021/09/20 03:50:00;;;;;;;4.85;2.90;;;12.00;99.90;;;;;;5071249;28;20544;-50
2021/09/20 03:52:26;;;;;;;4.82;2.90;;;12.00;99.90;;;;;;5069694;28;20039;-47
2021/09/20 03:54:51;;;;;;;4.95;3.28;;;12.00;99.90;;;;;;5069577;28;20029;-47
2021/09/20 03:57:17;;;;;;;3.33;2.65;;;12.00;99.90;;;;;;5070404;28;20111;-47
2021/09/20 03:59:42;;;;;;;4.85;2.70;;;12.00;99.90;;;;;;5070932;28;20458;-49
2021/09/20 04:02:08;;;;;;;3.65;2.60;;;12.00;99.90;;;;;;5070879;28;20039;-47
2021/09/20 04:04:33;;;;;;;5.63;2.88;;;12.00;99.90;;;;;;5070836;28;20025;-48
2021/09/20 04:07:02;;;;;;;4.85;2.95;;;12.00;99.90;;;;;;5058884;28;20024;-47
2021/09/20 04:09:28;;;;;;;6.78;2.92;;;12.00;99.90;;;;;;5065158;28;20438;-47
2021/09/20 04:11:53;;;;;;;5.63;3.03;;;11.90;99.90;;;;;;5069298;28;20020;-48
2021/09/20 04:14:19;;;;;;;5.95;2.78;;;11.90;99.90;;;;;;5070557;28;20036;-48
2021/09/20 04:16:44;;;;;;;5.60;2.83;;;11.90;99.90;;;;;;5070239;28;20462;-48
2021/09/20 04:19:10;;;;;;;4.43;2.97;;;11.90;99.90;;;;;;5069095;28;20024;-48
2021/09/20 04:21:35;;;;;;;6.25;2.90;;;11.90;99.90;;;;;;5070082;28;20112;-48
2021/09/20 04:24:01;;;;;;;4.85;3.13;;;11.90;99.90;;;;;;5069370;28;20025;-47
2021/09/20 04:26:26;;;;;;;4.28;2.88;;;11.90;99.90;;;;;;5070173;28;20478;-47
2021/09/20 04:28:52;;;;;;;3.15;2.58;;;11.90;99.90;;;;;;5068873;28;20116;-47
2021/09/20 04:31:17;;;;;;;5.13;2.72;;;11.90;99.90;;;;;;5070246;28;20028;-46
2021/09/20 04:33:43;;;;;;;4.13;3.08;;;11.90;99.90;;;;;;5070365;28;20028;-46
2021/09/20 04:36:08;;;;;;;4.60;2.60;;;11.90;99.90;;;;;;5063986;28;20024;-48
2021/09/20 04:38:34;;;;;;;5.18;2.83;;;11.90;99.90;;;;;;5061525;28;20028;-48
2021/09/20 04:40:59;;;;;;;5.43;2.90;;;11.90;99.90;;;;;;5070080;28;20029;-47
2021/09/20 04:43:25;;;;;;;4.40;3.22;;;11.90;99.90;;;;;;5069982;28;20029;-48
2021/09/20 04:45:50;;;;;;;4.97;2.80;;;11.90;99.90;;;;;;5069810;28;20035;-48
2021/09/20 04:48:16;;;;;;;4.00;2.53;;;11.80;99.90;;;;;;5069355;28;20663;-47
2021/09/20 04:50:44;;;;;;;4.13;2.88;;;11.80;99.90;;;;;;5069690;28;20032;-47
2021/09/20 04:53:12;;;;;;;4.45;2.80;;;11.80;99.90;;;;;;5070036;28;20035;-48
2021/09/20 04:55:38;;;;;;;5.35;3.40;;;11.80;99.90;;;;;;5067857;28;20024;-48
2021/09/20 04:58:08;;;;;;;4.88;3.20;;;11.80;99.90;;;;;;5069100;28;20024;-47
2021/09/20 05:00:34;;;;;;;;;;;11.80;99.90;;;;;;5070031;28;20089;-47
2021/09/20 05:03:00;;;;;;;4.63;2.75;;;11.80;99.90;;;;;;5069729;28;19915;-48
2021/09/20 05:05:26;;;;;;;4.40;3.10;;;11.80;99.90;;;;;;5068225;28;20021;-49
2021/09/20 05:07:52;;;;;;;3.70;2.67;;;11.80;99.90;;;;;;5056029;28;20032;-47
2021/09/20 05:10:17;;;;;;;6.50;3.13;;;11.80;99.90;;;;;;5069733;28;20113;-47
2021/09/20 05:12:43;;;;;;;4.28;2.70;;;11.80;99.90;;;;;;5050118;28;20467;-47
2021/09/20 05:15:09;;;;;;;7.22;2.95;;;11.80;99.90;;;;;;5041307;28;20037;-49
2021/09/20 05:17:35;;;;;;;5.72;3.17;;;11.80;99.90;;;;;;5047059;28;20013;-48
2021/09/20 05:20:01;;;;;;;4.63;2.55;;;11.80;99.90;;;;;;5053706;28;20028;-47
2021/09/20 05:22:26;;;;;;;5.32;2.90;;;11.80;99.90;;;;;;5057334;28;20021;-47
2021/09/20 05:24:52;;;;;;;4.88;2.80;;;11.80;99.90;;;;;;5066985;28;20510;-48
2021/09/20 05:27:17;;;;;;;4.38;2.83;;;11.80;99.90;;;;;;5060455;28;20021;-47
2021/09/20 05:29:44;;;;;;;6.05;3.42;;;11.80;99.90;;;;;;5048872;28;20037;-47
2021/09/20 05:32:10;;;;;;;6.65;3.20;;;11.80;99.90;;;;;;5049585;28;20054;-49
2021/09/20 05:34:35;;;;;;;4.60;3.08;;;11.80;99.90;;;;;;5057615;28;20020;-47
2021/09/20 05:37:01;;;;;;;4.43;3.10;;;11.80;99.90;;;;;;5053216;28;20043;-50
2021/09/20 05:39:26;;;;;;;5.47;3.00;;;11.80;99.90;;;;;;5063345;28;20453;-50
2021/09/20 05:41:52;;;;;;;7.35;3.25;;;11.80;99.90;;;;;;5069015;28;20065;-48
2021/09/20 05:44:17;;;;;;;5.50;3.00;;;11.80;99.90;;;;;;5068861;28;20060;-50
2021/09/20 05:46:43;;;;;;;6.25;3.67;;;11.80;99.90;;;;;;5056075;28;20415;-48
2021/09/20 05:49:08;;;;;;;4.97;3.10;;;11.80;99.90;;;;;;5069025;28;20025;-47
2021/09/20 05:51:34;;;;;;;5.82;3.30;;;11.80;99.90;;;;;;5068651;28;20024;-47
2021/09/20 05:53:59;;;;;;;5.50;3.63;;;11.80;99.90;;;;;;5043683;28;20364;-47
2021/09/20 05:56:25;;;;;;;6.30;3.35;;;11.80;99.90;;;;;;5036921;28;20124;-49
2021/09/20 05:58:50;;;;;;;8.73;3.75;;;11.90;99.90;;;;;;5045142;28;20059;-47
2021/09/20 06:01:16;;;;;;;6.07;3.08;;;11.90;99.90;;;;;;5055996;28;20272;-47
2021/09/20 06:03:42;;;;;;;11.32;3.50;;;11.90;99.90;;;;;;5048781;28;20112;-48
2021/09/20 06:06:07;;;;;;;6.05;3.50;;;11.90;99.90;;;;;;5047974;28;20078;-47
2021/09/20 06:08:33;;;;;;;5.05;3.20;;;11.90;99.90;;;;;;5045138;28;20479;-47
2021/09/20 06:10:58;;;;;;;4.72;3.33;;;11.80;99.90;;;;;;5047608;28;20124;-48
2021/09/20 06:13:24;;;;;;;6.03;3.50;;;11.90;99.90;;;;;;5054489;28;20041;-48
2021/09/20 06:15:52;;;;;;;4.90;3.40;;;11.90;99.90;;;;;;5048385;28;20037;-50
2021/09/20 06:18:17;;;;;;;6.30;3.72;;;11.90;99.90;;;;;;5047949;28;20017;-47
2021/09/20 06:20:43;;;;;;;7.57;3.65;;;11.90;99.90;;;;;;5048556;28;20023;-47
2021/09/20 06:23:08;;;;;;;5.43;3.22;;;11.90;99.90;;;;;;5048176;28;20025;-50
2021/09/20 06:25:33;;;;;;;4.07;3.10;;;11.90;99.90;;;;;;5048499;28;20029;-47
2021/09/20 06:27:59;;;;;;;4.57;3.42;;;11.90;99.90;;;;;;5047880;28;20048;-47
2021/09/20 06:30:25;;;;;;;6.47;4.15;;;11.90;99.90;;;;;;5048451;28;20454;-47
2021/09/20 06:32:50;;;;;;;4.15;3.35;;;12.00;99.90;;;;;;5056070;28;20089;-48
2021/09/20 06:35:15;;;;;;;7.28;3.22;;;12.00;99.90;;;;;;5061013;28;20378;-48
2021/09/20 06:37:41;;;;;;;7.05;3.25;;;12.00;99.90;;;;;;5053601;28;20500;-47
2021/09/20 06:40:08;;;;;;;4.82;2.88;;;12.10;99.90;;;;;;5067930;28;20092;-50
2021/09/20 06:42:34;;;;;;;7.55;3.28;;;12.10;99.90;;;;;;5068166;28;20031;-49
2021/09/20 06:44:59;;;;;;;6.22;3.35;;;12.10;99.90;;;;;;5068159;28;20386;-47
2021/09/20 06:47:25;;;;;;;8.23;3.65;;;12.20;99.90;;;;;;5067786;28;20025;-47
2021/09/20 06:49:50;;;;;;;7.22;3.33;;;12.20;99.90;;;;;;5066860;28;20489;-50
2021/09/20 06:52:16;;;;;;;7.53;3.67;;;12.30;99.90;;;;;;5067942;28;20043;-47
2021/09/20 06:54:44;;;;;;;4.70;3.03;;;12.40;99.90;;;;;;5068136;28;20035;-47
2021/09/20 06:57:09;;;;;;;4.65;2.95;;;12.40;99.90;;;;;;5067672;28;20036;-50
2021/09/20 06:59:35;;;;;;;6.80;3.28;;;12.50;99.90;;;;;;5068606;28;20103;-49
2021/09/20 07:02:00;;;;;;;4.45;2.90;;;12.50;99.90;;;;;;5059965;28;20029;-48
2021/09/20 07:04:26;;;;;;;5.18;3.33;;;12.50;99.90;;;;;;5059841;28;20031;-50
2021/09/20 07:06:51;;;;;;;5.82;3.22;;;12.60;99.90;;;;;;5053297;28;20087;-48
2021/09/20 07:09:17;;;;;;;5.65;3.17;;;12.60;99.90;;;;;;5057852;28;20505;-48
2021/09/20 07:11:43;;;;;;;5.82;3.33;;;12.60;99.90;;;;;;5029070;28;20036;-48
2021/09/20 07:14:08;;;;;;;8.00;3.15;;;12.70;99.90;;;;;;5024583;28;20033;-48
2021/09/20 07:16:34;;;;;;;5.70;3.13;;;12.70;99.90;;;;;;5028350;28;20105;-48
2021/09/20 07:19:00;;;;;;;4.85;3.00;;;12.70;99.90;;;;;;5037205;28;20430;-49
2021/09/20 07:21:26;;;;;;;3.10;2.60;;;12.70;99.90;;;;;;5032470;28;20512;-46
2021/09/20 07:23:56;;;;;;;4.85;3.13;;;12.80;99.90;;;;;;5032896;28;20442;-50
2021/09/20 07:26:24;;;;;;;4.57;2.95;;;12.90;99.90;;;;;;5030727;28;20033;-50
2021/09/20 07:28:50;;;;;;;4.60;2.92;;;13.00;99.90;;;;;;5059268;28;20381;-50
2021/09/20 07:31:16;;;;;;;6.13;2.95;;;13.10;99.90;;;;;;5073040;28;20024;-49
2021/09/20 07:33:42;;;;;;;5.75;2.72;;;13.10;99.90;;;;;;5058851;28;20036;-48
2021/09/20 07:36:08;;;;;;;4.50;2.90;;;13.20;99.90;;;;;;5050808;28;20111;-49
2021/09/20 07:38:34;;;;;;;4.00;2.85;;;13.30;99.90;;;;;;5051233;28;20101;-48
2021/09/20 07:41:01;;;;;;;4.03;2.72;;;13.30;99.90;;;;;;5051136;28;20020;-48
2021/09/20 07:43:26;;;;;;;4.20;2.60;;;13.40;99.90;;;;;;5051480;28;20025;-50
2021/09/20 07:45:52;;;;;;;5.38;3.97;;;13.40;99.90;;;;;;5051121;28;20082;-49
2021/09/20 07:48:17;;;;;;;3.55;3.08;;;13.50;99.90;;;;;;5050625;28;20229;-49
2021/09/20 07:50:43;;;;;;;9.10;3.40;;;13.50;99.90;;;;;;5051479;28;20029;-50
2021/09/20 07:53:09;;;;;;;8.20;3.08;;;13.60;99.90;;;;;;5050890;28;20113;-51
2021/09/20 07:55:35;;;;;;;4.15;3.30;;;13.70;99.90;;;;;;5051169;28;20035;-51
2021/09/20 07:58:05;;;;;;;5.57;3.55;;;13.80;99.90;;;;;;5054748;28;20421;-48
2021/09/20 08:00:31;;;;;;;6.00;3.13;;;13.90;99.90;;;;;;5064718;28;20524;-51
2021/09/20 08:02:57;;;;;;;6.00;3.45;;;14.00;99.90;;;;;;5064707;28;20033;-51
2021/09/20 08:05:23;;;;;;;4.72;3.53;;;14.00;99.90;;;;;;5064704;28;20472;-49
2021/09/20 08:07:48;;;;;;;6.65;3.33;;;14.00;99.90;;;;;;5052762;28;20035;-51
2021/09/20 08:10:14;;;;;;;4.93;3.20;;;14.10;99.90;;;;;;5061824;28;20036;-48
2021/09/20 08:12:41;;;;;;;4.78;3.30;;;14.10;99.90;;;;;;5070695;28;20035;-51
2021/09/20 08:15:07;;;;;;;7.70;3.75;;;14.20;99.90;;;;;;5070749;28;20035;-48
2021/09/20 08:17:33;;;;;;;8.10;3.30;;;14.20;99.90;;;;;;5070026;28;20031;-49
2021/09/20 08:20:00;;;;;;;4.15;3.20;;;14.30;99.90;;;;;;5071119;28;20028;-48
2021/09/20 08:22:25;;;;;;;4.70;3.10;;;14.40;99.90;;;;;;5070677;28;20187;-49
2021/09/20 08:24:51;;;;;;;10.30;3.55;;;14.50;99.90;;;;;;5070474;28;20025;-48
2021/09/20 08:27:17;;;;;;;4.03;3.15;;;14.60;99.90;;;;;;5069830;28;20063;-48
2021/09/20 08:29:42;;;;;;;5.30;3.17;;;14.60;99.90;;;;;;5069724;28;20027;-50
2021/09/20 08:32:08;;;;;;;7.70;3.33;;;14.60;99.90;;;;;;5070291;28;20086;-49
2021/09/20 08:34:36;;;;;;;6.15;3.28;;;14.70;99.90;;;;;;5064628;28;20024;-49
2021/09/20 08:37:03;;;;;;;4.07;2.97;;;14.60;99.90;;;;;;5046342;28;20326;-48
2021/09/20 08:39:29;;;;;;;4.93;3.00;;;14.70;99.90;;;;;;5061826;28;20119;-51
2021/09/20 08:41:55;;;;;;;6.05;3.08;;;14.70;99.90;;;;;;5070466;28;20032;-49
2021/09/20 08:44:22;;;;;;;7.18;3.00;;;14.80;99.90;;;;;;5052022;28;20020;-48
2021/09/20 08:46:51;;;;;;;5.32;2.65;;;14.80;99.90;;;;;;5067918;28;20025;-49
2021/09/20 08:49:21;;;;;;;3.58;2.85;;;14.80;99.90;;;;;;5068661;28;20052;-50
2021/09/20 08:51:49;;;;;;;4.28;3.35;;;14.90;99.90;;;;;;5069634;28;20037;-50
2021/09/20 08:54:16;;;;;;;3.40;2.88;;;15.00;99.90;;;;;;5069919;28;20060;-50
2021/09/20 08:56:41;;;;;;;5.93;3.47;;;15.00;99.90;;;;;;5069190;28;20488;-48
2021/09/20 08:59:07;;;;;;;7.40;2.92;;;15.10;99.90;;;;;;5069285;28;20024;-46
2021/09/20 09:01:33;;;;;;;5.53;3.00;;;15.20;99.90;;;;;;5063183;28;20044;-46
2021/09/20 09:04:27;;;;;;;7.78;3.33;;;15.40;99.90;;;;;;5058717;28;20021;-47
2021/09/20 09:07:14;;;;;;;5.75;3.00;;;15.60;99.90;;;;;;5052272;28;20056;-47
2021/09/20 09:09:45;;;;;;;7.70;3.22;;;15.80;99.90;;;;;;5061054;28;20017;-49
2021/09/20 09:12:16;;;;;;;4.13;2.88;;;15.90;99.90;;;;;;5069317;28;20020;-47
2021/09/20 09:14:59;;;;;;;5.22;2.90;;;16.20;99.90;;;;;;5069213;28;20024;-48
2021/09/20 09:17:28;;;;;;;3.92;2.90;;;16.60;99.90;;;;;;5068762;28;20040;-51
2021/09/20 09:20:09;;;;;;;4.75;3.53;;;17.00;99.90;;;;;;5069109;28;20024;-48
2021/09/20 09:22:49;;;;;;;11.68;3.22;;;17.80;99.90;;;;;;5069130;28;20016;-49
2021/09/20 09:25:18;;;;;;;;;;;19.90;98.90;;;;;;5069379;28;20103;-50
2021/09/20 09:27:45;;;;;;;3.63;2.17;;;20.60;95.40;;;;;;5068414;28;20405;-49
2021/09/20 09:30:22;;;;;;;3.40;2.40;;;20.60;92.70;;;;;;5069142;28;20037;-49
2021/09/20 09:33:03;;;;;;;5.20;2.65;;;20.50;91.40;;;;;;5052698;28;20109;-50
2021/09/20 09:35:31;;;;;;;3.17;2.70;;;20.30;91.60;;;;;;5063112;28;20043;-47
2021/09/20 09:38:01;;;;;;;2.90;2.60;;;19.70;92.60;;;;;;5051709;28;20080;-49
2021/09/20 09:40:27;;;;;;;5.95;2.45;;;19.50;92.20;;;;;;5062229;28;20505;-49
2021/09/20 09:43:02;;;;;;;2.80;2.17;;;19.40;92.40;;;;;;5068867;28;20025;-49
2021/09/20 09:45:33;;;;;;;4.65;2.28;;;19.70;92.00;;;;;;5055849;28;20033;-50
2021/09/20 09:48:07;;;;;;;5.10;2.88;;;19.60;90.90;;;;;;5038643;28;20037;-51
2021/09/20 09:50:32;;;;;;;4.82;2.90;;;19.50;90.90;;;;;;5039436;28;20112;-50
2021/09/20 09:52:59;;;;;;;3.97;3.22;;;19.30;90.50;;;;;;5038960;28;20033;-48
2021/09/20 09:55:25;;;;;;;4.28;2.55;;;19.10;90.70;;;;;;5040849;28;20028;-51
2021/09/20 09:57:52;;;;;;;5.70;3.42;;;18.90;91.80;;;;;;5038836;28;20025;-50
2021/09/20 10:00:20;;;;;;;6.70;2.95;;;18.90;92.00;;;;;;5038030;28;20021;-51
2021/09/20 10:02:48;;;;;;;3.88;3.05;;;18.60;91.40;;;;;;5040384;28;20108;-51
2021/09/20 10:05:19;;;;;;;5.88;2.70;;;18.40;91.50;;;;;;5038873;28;20031;-47
2021/09/20 10:07:48;;;;;;;5.85;3.05;;;18.10;91.70;;;;;;5038856;28;20079;-51
2021/09/20 10:10:23;;;;;;;6.35;3.15;;;18.00;92.00;;;;;;5045664;28;20021;-49
2021/09/20 10:12:52;;;;;;;5.03;2.70;;;18.10;93.60;;;;;;5047372;28;20036;-48
2021/09/20 10:15:21;;;;;;;5.93;2.83;;;18.20;92.80;;;;;;5049821;28;20032;-50
2021/09/20 10:17:47;;;;;;;4.53;2.60;;;18.40;92.70;;;;;;5049107;28;20106;-50
2021/09/20 10:20:17;;;;;;;4.22;2.40;;;18.90;92.20;;;;;;5049696;28;20037;-50
2021/09/20 10:22:43;;;;;;;3.00;2.70;;;19.90;91.00;;;;;;5049709;28;20045;-49
2021/09/20 10:25:10;;;;;;;3.03;2.30;;;21.00;87.90;;;;;;5049948;28;20067;-51
2021/09/20 10:27:36;;;;;;;4.68;2.47;;;21.70;85.90;;;;;;5047807;28;20606;-51
2021/09/20 10:30:06;;;;;;;4.15;2.13;;;22.60;80.40;;;;;;5049783;28;20036;-51
2021/09/20 10:32:32;;;;;;;;;;;22.40;79.50;;;;;;5050620;28;20107;-48
2021/09/20 10:35:25;;;;;;;3.70;2.78;;;21.70;77.70;;;;;;5049901;28;20438;-49
2021/09/20 10:37:53;;;;;;;3.25;2.33;;;21.10;78.40;;;;;;5049278;28;20025;-49
2021/09/20 10:40:19;;;;;;;5.15;2.72;;;20.20;81.00;;;;;;5041576;28;20025;-49
2021/09/20 10:42:52;;;;;;;5.20;2.85;;;19.40;83.60;;;;;;5040596;28;20090;-50
2021/09/20 10:45:35;;;;;;;4.95;2.50;;;19.00;85.60;;;;;;5036969;28;20025;-48
2021/09/20 10:48:03;;;;;;;8.30;3.30;;;18.40;88.90;;;;;;5039747;28;20032;-49
2021/09/20 10:50:53;;;;;;;5.47;2.90;;;18.10;89.60;;;;;;5048184;28;20520;-48
2021/09/20 10:53:29;;;;;;;;;;;17.70;90.50;;;;;;5039463;28;20033;-49
2021/09/20 10:56:06;;;;;;;4.57;3.10;;;17.40;91.00;;;;;;5040085;28;19916;-47
2021/09/20 10:58:38;;;;;;;4.53;3.20;;;17.30;91.50;;;;;;5035737;28;20029;-50
2021/09/20 11:01:15;;;;;;;4.72;3.13;;;17.40;91.80;;;;;;5033114;28;20032;-47
2021/09/20 11:03:50;;;;;;;8.40;2.85;;;17.30;91.40;;;;;;5048746;28;20028;-48
2021/09/20 11:06:22;;;;;;;5.25;3.00;;;17.50;91.30;;;;;;5039203;28;20451;-47
2021/09/20 11:09:08;;;;;;;2.80;2.45;;;17.80;90.90;;;;;;5047334;28;20100;-47
2021/09/20 11:11:37;;;;;;;7.15;2.45;;;18.00;90.00;;;;;;5041171;28;20479;-47
2021/09/20 11:14:07;;;;;;;3.40;2.38;;;18.10;89.20;;;;;;5039343;28;20087;-49
2021/09/20 11:16:45;;;;;;;5.60;2.83;;;18.30;90.10;;;;;;5039769;28;20119;-49
2021/09/20 11:22:09;;;;;;;4.55;2.50;;;17.90;87.20;;;;;;5040199;28;20030;-48
2021/09/20 11:25:03;;;;;;;4.63;3.05;;;17.70;88.60;;;;;;5040788;28;20105;-47
2021/09/20 11:27:59;;;;;;;4.97;2.45;;;17.50;90.00;;;;;;5039521;28;20108;-48
2021/09/20 11:30:25;;;;;;;4.40;2.58;;;17.20;90.10;;;;;;5036656;28;20038;-48
2021/09/20 11:33:02;;;;;;;4.32;2.20;;;17.10;90.80;;;;;;5044516;28;20017;-49
2021/09/20 11:35:31;;;;;;;5.65;2.42;;;17.20;90.70;;;;;;5044221;28;20036;-50
2021/09/20 11:38:00;;;;;;;5.72;2.60;;;17.30;90.70;;;;;;5044862;28;20030;-51
2021/09/20 11:40:28;;;;;;;7.22;3.10;;;17.50;91.60;;;;;;5061725;28;20016;-48
2021/09/20 11:42:55;;;;;;;3.10;2.55;;;17.70;90.20;;;;;;5053936;28;20505;-49
2021/09/20 11:45:26;;;;;;;4.45;3.15;;;17.80;89.50;;;;;;5042125;28;20039;-50
2021/09/20 11:48:00;;;;;;;3.65;2.58;;;17.80;88.10;;;;;;5034895;28;20124;-48
2021/09/20 11:50:37;;;;;;;5.88;3.83;;;17.80;88.70;;;;;;5037413;28;20040;-50
2021/09/20 11:53:06;;;;;;;4.63;3.33;;;18.00;90.60;;;;;;5040115;28;20329;-48
2021/09/20 11:55:37;;;;;;;4.90;2.80;;;18.10;90.10;;;;;;5042380;28;20028;-49
2021/09/20 11:58:06;;;;;;;5.05;3.00;;;18.10;90.00;;;;;;5050349;28;20049;-49
2021/09/20 12:00:34;;;;;;;4.50;2.88;;;18.10;89.10;;;;;;5050981;28;20060;-48
2021/09/20 12:03:03;;;;;;;4.85;2.85;;;17.80;90.00;;;;;;5049034;28;20030;-50
2021/09/20 12:05:31;;;;;;;3.33;2.97;;;17.50;89.70;;;;;;5042199;28;20021;-47
2021/09/20 12:08:00;;;;;;;5.25;2.97;;;17.20;90.70;;;;;;5041294;28;20032;-50
2021/09/20 12:10:27;;;;;;;6.03;2.70;;;16.90;90.90;;;;;;5042725;28;20025;-48
2021/09/20 12:12:55;;;;;;;6.75;2.92;;;16.80;91.30;;;;;;5038616;28;20390;-48
2021/09/20 12:15:26;;;;;;;5.10;2.58;;;16.80;91.70;;;;;;5038801;28;20230;-48
2021/09/20 12:18:06;;;;;;;6.95;3.25;;;16.60;91.40;;;;;;5037712;28;20033;-48
2021/09/20 12:20:46;;;;;;;3.78;2.60;;;16.50;91.60;;;;;;5043636;28;20430;-49
2021/09/20 12:23:20;;;;;;;5.88;2.95;;;16.50;92.30;;;;;;5039731;28;20056;-48
2021/09/20 12:25:53;;;;;;;3.88;2.40;;;16.50;91.80;;;;;;5039602;28;20037;-48
2021/09/20 12:28:18;;;;;;;5.10;2.88;;;16.60;92.00;;;;;;5037569;28;20025;-50
2021/09/20 12:31:03;;;;;;;4.82;2.95;;;16.80;92.30;;;;;;5044036;28;20109;-48
2021/09/20 12:33:46;;;;;;;3.75;2.70;;;17.00;91.60;;;;;;5058883;28;20025;-50
2021/09/20 12:36:29;;;;;;;5.53;2.78;;;17.40;90.60;;;;;;5030062;28;20033;-48
2021/09/20 12:39:25;;;;;;;3.45;2.30;;;17.60;90.30;;;;;;5056485;28;20441;-48
2021/09/20 12:41:58;;;;;;;3.30;2.70;;;17.90;90.90;;;;;;5049485;28;20068;-49
2021/09/20 12:44:33;;;;;;;2.83;2.00;;;18.00;88.00;;;;;;5050279;28;20017;-49
2021/09/20 12:47:26;;;;;;;6.05;2.72;;;18.20;88.00;;;;;;5049235;28;20031;-50
2021/09/20 12:50:07;;;;;;;3.85;2.50;;;18.20;85.90;;;;;;5049490;28;20029;-48
2021/09/20 12:52:39;;;;;;;2.92;2.40;;;18.40;85.90;;;;;;5049798;28;20021;-48
2021/09/20 12:55:06;;;;;;;3.70;2.10;;;18.60;87.10;;;;;;5049756;28;20486;-48